createdAt,value
2023-01-22T00:00:03.779Z,958.37
2023-01-22T00:00:16.116Z,958.39
2023-01-22T00:00:26.733Z,958.37
2023-01-22T00:00:37.780Z,958.38
2023-01-22T00:00:49.750Z,958.39
2023-01-22T00:01:00.762Z,958.38
2023-01-22T00:01:12.782Z,958.37
2023-01-22T00:01:23.716Z,958.36
2023-01-22T00:01:34.731Z,958.38
2023-01-22T00:01:45.767Z,958.36
2023-01-22T00:01:57.749Z,958.38
2023-01-22T00:02:08.790Z,958.40
2023-01-22T00:02:20.788Z,958.36
2023-01-22T00:02:32.854Z,958.39
2023-01-22T00:02:43.808Z,958.37
2023-01-22T00:02:55.802Z,958.33
2023-01-22T00:03:06.773Z,958.37
2023-01-22T00:03:18.813Z,958.34
2023-01-22T00:03:29.773Z,958.37
2023-01-22T00:03:41.822Z,958.35
2023-01-22T00:03:53.874Z,958.38
2023-01-22T00:04:04.840Z,958.35
2023-01-22T00:04:15.762Z,958.38
2023-01-22T00:04:26.756Z,958.41
2023-01-22T00:04:38.748Z,958.41
2023-01-22T00:04:49.766Z,958.41
2023-01-22T00:05:00.778Z,958.38
2023-01-22T00:05:11.790Z,958.37
2023-01-22T00:05:23.769Z,958.36
2023-01-22T00:05:35.750Z,958.37
2023-01-22T00:05:46.782Z,958.39
2023-01-22T00:05:58.747Z,958.37
2023-01-22T00:06:09.781Z,958.36
2023-01-22T00:06:21.766Z,958.38
2023-01-22T00:06:33.761Z,958.38
2023-01-22T00:06:44.770Z,958.34
2023-01-22T00:06:56.749Z,958.35
2023-01-22T00:07:07.762Z,958.32
2023-01-22T00:07:18.781Z,958.33
2023-01-22T00:07:30.764Z,958.35
2023-01-22T00:07:41.779Z,958.36
2023-01-22T00:07:52.791Z,958.34
2023-01-22T00:08:04.764Z,958.35
2023-01-22T00:08:16.761Z,958.35
2023-01-22T00:08:27.761Z,958.32
2023-01-22T00:08:38.779Z,958.32
2023-01-22T00:08:49.783Z,958.35
2023-01-22T00:09:01.786Z,958.34
2023-01-22T00:09:13.749Z,958.35
2023-01-22T00:09:24.753Z,958.31
2023-01-22T00:09:35.769Z,958.32
2023-01-22T00:09:46.775Z,958.30
2023-01-22T00:09:57.783Z,958.31
2023-01-22T00:10:09.776Z,958.31
2023-01-22T00:10:21.760Z,958.31
2023-01-22T00:10:32.772Z,958.34
2023-01-22T00:10:44.757Z,958.34
2023-01-22T00:10:56.765Z,958.30
2023-01-22T00:11:07.773Z,958.31
2023-01-22T00:11:19.761Z,958.29
2023-01-22T00:11:30.754Z,958.31
2023-01-22T00:11:42.752Z,958.29
2023-01-22T00:11:53.768Z,958.31
2023-01-22T00:12:04.779Z,958.26
2023-01-22T00:12:15.776Z,958.28
2023-01-22T00:12:26.789Z,958.28
2023-01-22T00:12:38.764Z,958.29
2023-01-22T00:12:49.765Z,958.29
2023-01-22T00:13:00.776Z,958.27
2023-01-22T00:13:11.774Z,958.23
2023-01-22T00:13:23.792Z,958.30
2023-01-22T00:13:35.772Z,958.30
2023-01-22T00:13:46.776Z,958.28
2023-01-22T00:13:58.758Z,958.24
2023-01-22T00:14:09.831Z,958.25
2023-01-22T00:14:21.783Z,958.28
2023-01-22T00:14:33.827Z,958.26
2023-01-22T00:14:44.787Z,958.29
2023-01-22T00:14:56.772Z,958.27
2023-01-22T00:15:08.750Z,958.27
2023-01-22T00:15:19.767Z,958.27
2023-01-22T00:15:30.777Z,958.29
2023-01-22T00:15:41.796Z,958.29
2023-01-22T00:15:53.824Z,958.31
2023-01-22T00:16:05.848Z,958.23
2023-01-22T00:16:17.857Z,958.30
2023-01-22T00:16:29.757Z,958.28
2023-01-22T00:16:40.778Z,958.28
2023-01-22T00:16:52.759Z,958.27
2023-01-22T00:17:03.769Z,958.29
2023-01-22T00:17:15.752Z,958.30
2023-01-22T00:17:27.779Z,958.29
2023-01-22T00:17:39.756Z,958.30
2023-01-22T00:17:50.771Z,958.28
2023-01-22T00:18:01.788Z,958.28
2023-01-22T00:18:13.761Z,958.27
2023-01-22T00:18:24.774Z,958.26
2023-01-22T00:18:36.784Z,958.26
2023-01-22T00:18:48.783Z,958.28
2023-01-22T00:19:00.783Z,958.27
2023-01-22T00:19:12.783Z,958.28
2023-01-22T00:19:24.770Z,958.28
2023-01-22T00:19:35.772Z,958.29
2023-01-22T00:19:46.768Z,958.26
2023-01-22T00:19:58.758Z,958.28
2023-01-22T00:20:09.763Z,958.30
2023-01-22T00:20:20.982Z,958.26
2023-01-22T00:20:32.787Z,958.30
2023-01-22T00:20:44.774Z,958.30
2023-01-22T00:20:56.748Z,958.32
2023-01-22T00:21:07.767Z,958.30
2023-01-22T00:21:18.777Z,958.30
2023-01-22T00:21:29.774Z,958.27
2023-01-22T00:21:41.759Z,958.30
2023-01-22T00:21:52.770Z,958.31
2023-01-22T00:22:04.747Z,958.31
2023-01-22T00:22:15.758Z,958.29
2023-01-22T00:22:26.771Z,958.30
2023-01-22T00:22:37.787Z,958.30
2023-01-22T00:22:49.783Z,958.31
2023-01-22T00:23:01.785Z,958.30
2023-01-22T00:23:13.761Z,958.29
2023-01-22T00:23:24.772Z,958.30
2023-01-22T00:23:36.755Z,958.28
2023-01-22T00:23:47.764Z,958.28
2023-01-22T00:23:59.752Z,958.32
2023-01-22T00:24:10.751Z,958.29
2023-01-22T00:24:21.770Z,958.30
2023-01-22T00:24:33.754Z,958.31
2023-01-22T00:24:44.771Z,958.28
2023-01-22T00:24:56.767Z,958.27
2023-01-22T00:25:07.787Z,958.30
2023-01-22T00:25:19.768Z,958.30
2023-01-22T00:25:30.770Z,958.30
2023-01-22T00:25:42.746Z,958.27
2023-01-22T00:25:53.748Z,958.23
2023-01-22T00:26:05.759Z,958.24
2023-01-22T00:26:16.765Z,958.30
2023-01-22T00:26:27.790Z,958.28
2023-01-22T00:26:39.758Z,958.26
2023-01-22T00:26:50.763Z,958.27
2023-01-22T00:27:01.776Z,958.27
2023-01-22T00:27:13.760Z,958.29
2023-01-22T00:27:24.764Z,958.31
2023-01-22T00:27:35.786Z,958.32
2023-01-22T00:27:47.768Z,958.30
2023-01-22T00:27:59.763Z,958.32
2023-01-22T00:28:11.756Z,958.31
2023-01-22T00:28:22.784Z,958.31
2023-01-22T00:28:34.832Z,958.32
2023-01-22T00:28:45.735Z,958.31
2023-01-22T00:28:56.737Z,958.29
2023-01-22T00:29:07.749Z,958.28
2023-01-22T00:29:18.753Z,958.30
2023-01-22T00:29:29.764Z,958.32
2023-01-22T00:29:40.772Z,958.31
2023-01-22T00:29:52.791Z,958.31
2023-01-22T00:30:04.777Z,958.30
2023-01-22T00:30:16.140Z,958.29
2023-01-22T00:30:26.745Z,958.30
2023-01-22T00:30:37.756Z,958.27
2023-01-22T00:30:48.777Z,958.28
2023-01-22T00:31:00.869Z,958.31
2023-01-22T00:31:11.873Z,958.30
2023-01-22T00:31:22.905Z,958.28
2023-01-22T00:31:33.866Z,958.27
2023-01-22T00:31:44.898Z,958.29
2023-01-22T00:31:55.944Z,958.28
2023-01-22T00:32:06.877Z,958.28
2023-01-22T00:32:17.886Z,958.23
2023-01-22T00:32:29.765Z,958.23
2023-01-22T00:32:40.780Z,958.26
2023-01-22T00:32:51.785Z,958.29
2023-01-22T00:33:03.778Z,958.26
2023-01-22T00:33:15.755Z,958.25
2023-01-22T00:33:27.757Z,958.25
2023-01-22T00:33:38.777Z,958.28
2023-01-22T00:33:50.766Z,958.27
2023-01-22T00:34:01.775Z,958.27
2023-01-22T00:34:12.763Z,958.29
2023-01-22T00:34:23.762Z,958.29
2023-01-22T00:34:34.765Z,958.25
2023-01-22T00:34:45.785Z,958.25
2023-01-22T00:34:57.771Z,958.26
2023-01-22T00:35:09.755Z,958.23
2023-01-22T00:35:20.765Z,958.23
2023-01-22T00:35:31.775Z,958.24
2023-01-22T00:35:43.752Z,958.25
2023-01-22T00:35:54.765Z,958.25
2023-01-22T00:36:05.797Z,958.20
2023-01-22T00:36:17.776Z,958.23
2023-01-22T00:36:28.778Z,958.25
2023-01-22T00:36:40.779Z,958.21
2023-01-22T00:36:51.794Z,958.27
2023-01-22T00:37:03.768Z,958.23
2023-01-22T00:37:14.769Z,958.24
2023-01-22T00:37:26.749Z,958.24
2023-01-22T00:37:37.761Z,958.22
2023-01-22T00:37:48.795Z,958.22
2023-01-22T00:38:00.767Z,958.24
2023-01-22T00:38:12.773Z,958.26
2023-01-22T00:38:24.757Z,958.25
2023-01-22T00:38:35.764Z,958.25
2023-01-22T00:38:46.779Z,958.25
2023-01-22T00:38:58.759Z,958.27
2023-01-22T00:39:10.751Z,958.25
2023-01-22T00:39:21.761Z,958.26
2023-01-22T00:39:32.772Z,958.25
2023-01-22T00:39:43.775Z,958.24
2023-01-22T00:39:54.792Z,958.23
2023-01-22T00:40:06.781Z,958.26
2023-01-22T00:40:18.988Z,958.22
2023-01-22T00:40:29.776Z,958.23
2023-01-22T00:40:41.761Z,958.23
2023-01-22T00:40:52.764Z,958.24
2023-01-22T00:41:04.758Z,958.24
2023-01-22T00:41:15.780Z,958.22
2023-01-22T00:41:27.754Z,958.20
2023-01-22T00:41:38.775Z,958.24
2023-01-22T00:41:50.758Z,958.23
2023-01-22T00:42:01.775Z,958.22
2023-01-22T00:42:13.750Z,958.22
2023-01-22T00:42:24.781Z,958.25
2023-01-22T00:42:36.766Z,958.23
2023-01-22T00:42:47.780Z,958.22
2023-01-22T00:42:59.780Z,958.19
2023-01-22T00:43:11.772Z,958.20
2023-01-22T00:43:23.764Z,958.22
2023-01-22T00:43:35.780Z,958.23
2023-01-22T00:43:47.762Z,958.23
2023-01-22T00:43:58.760Z,958.23
2023-01-22T00:44:09.765Z,958.24
2023-01-22T00:44:20.785Z,958.21
2023-01-22T00:44:32.784Z,958.23
2023-01-22T00:44:44.773Z,958.19
2023-01-22T00:44:56.794Z,958.20
2023-01-22T00:45:08.776Z,958.22
2023-01-22T00:45:20.759Z,958.23
2023-01-22T00:45:32.749Z,958.26
2023-01-22T00:45:43.768Z,958.26
2023-01-22T00:45:54.783Z,958.22
2023-01-22T00:46:06.785Z,958.22
2023-01-22T00:46:18.832Z,958.24
2023-01-22T00:46:30.828Z,958.23
2023-01-22T00:46:41.809Z,958.23
2023-01-22T00:46:52.819Z,958.23
2023-01-22T00:47:03.791Z,958.25
2023-01-22T00:47:15.758Z,958.24
2023-01-22T00:47:26.781Z,958.23
2023-01-22T00:47:37.772Z,958.19
2023-01-22T00:47:48.779Z,958.19
2023-01-22T00:48:00.776Z,958.20
2023-01-22T00:48:11.778Z,958.17
2023-01-22T00:48:23.759Z,958.16
2023-01-22T00:48:35.749Z,958.19
2023-01-22T00:48:46.789Z,958.19
2023-01-22T00:48:58.761Z,958.18
2023-01-22T00:49:10.784Z,958.20
2023-01-22T00:49:22.760Z,958.17
2023-01-22T00:49:33.773Z,958.16
2023-01-22T00:49:45.789Z,958.19
2023-01-22T00:49:57.782Z,958.19
2023-01-22T00:50:09.803Z,958.21
2023-01-22T00:50:21.791Z,958.19
2023-01-22T00:50:33.781Z,958.20
2023-01-22T00:50:45.869Z,958.18
2023-01-22T00:50:57.823Z,958.20
2023-01-22T00:51:08.957Z,958.19
2023-01-22T00:51:20.844Z,958.20
2023-01-22T00:51:32.767Z,958.20
2023-01-22T00:51:44.765Z,958.20
2023-01-22T00:51:55.784Z,958.18
2023-01-22T00:52:07.751Z,958.22
2023-01-22T00:52:18.764Z,958.22
2023-01-22T00:52:29.775Z,958.19
2023-01-22T00:52:41.765Z,958.16
2023-01-22T00:52:53.762Z,958.14
2023-01-22T00:53:04.779Z,958.17
2023-01-22T00:53:16.771Z,958.18
2023-01-22T00:53:28.768Z,958.17
2023-01-22T00:53:39.792Z,958.17
2023-01-22T00:53:51.772Z,958.17
2023-01-22T00:54:03.754Z,958.19
2023-01-22T00:54:14.770Z,958.19
2023-01-22T00:54:26.766Z,958.19
2023-01-22T00:54:37.776Z,958.21
2023-01-22T00:54:49.763Z,958.21
2023-01-22T00:55:00.771Z,958.22
2023-01-22T00:55:11.793Z,958.20
2023-01-22T00:55:23.795Z,958.17
2023-01-22T00:55:35.773Z,958.19
2023-01-22T00:55:47.789Z,958.22
2023-01-22T00:55:59.776Z,958.17
2023-01-22T00:56:11.758Z,958.18
2023-01-22T00:56:22.769Z,958.16
2023-01-22T00:56:34.770Z,958.21
2023-01-22T00:56:45.788Z,958.20
2023-01-22T00:56:57.767Z,958.20
2023-01-22T00:57:08.789Z,958.18
2023-01-22T00:57:20.785Z,958.18
2023-01-22T00:57:32.764Z,958.23
2023-01-22T00:57:44.767Z,958.17
2023-01-22T00:57:56.756Z,958.19
2023-01-22T00:58:07.768Z,958.19
2023-01-22T00:58:18.773Z,958.19
2023-01-22T00:58:30.756Z,958.20
2023-01-22T00:58:42.765Z,958.24
2023-01-22T00:58:53.777Z,958.22
2023-01-22T00:59:05.748Z,958.19
2023-01-22T00:59:16.762Z,958.17
2023-01-22T00:59:27.798Z,958.15
2023-01-22T00:59:39.767Z,958.17
2023-01-22T00:59:51.754Z,958.19
2023-01-22T01:00:03.752Z,958.18
2023-01-22T01:00:14.822Z,958.19
2023-01-22T01:00:26.803Z,958.16
2023-01-22T01:00:38.823Z,958.16
2023-01-22T01:00:50.880Z,958.14
2023-01-22T01:01:01.800Z,958.14
2023-01-22T01:01:12.742Z,958.18
2023-01-22T01:01:23.740Z,958.16
2023-01-22T01:01:34.814Z,958.17
2023-01-22T01:01:45.809Z,958.16
2023-01-22T01:01:56.823Z,958.17
2023-01-22T01:02:08.834Z,958.19
2023-01-22T01:02:20.829Z,958.19
2023-01-22T01:02:31.776Z,958.19
2023-01-22T01:02:43.758Z,958.19
2023-01-22T01:02:54.774Z,958.19
2023-01-22T01:03:05.784Z,958.16
2023-01-22T01:03:17.770Z,958.16
2023-01-22T01:03:29.758Z,958.19
2023-01-22T01:03:40.763Z,958.17
2023-01-22T01:03:52.765Z,958.21
2023-01-22T01:04:03.773Z,958.22
2023-01-22T01:04:14.784Z,958.18
2023-01-22T01:04:26.767Z,958.21
2023-01-22T01:04:37.780Z,958.20
2023-01-22T01:04:49.759Z,958.21
2023-01-22T01:05:00.770Z,958.18
2023-01-22T01:05:12.755Z,958.20
2023-01-22T01:05:23.782Z,958.20
2023-01-22T01:05:35.775Z,958.20
2023-01-22T01:05:47.754Z,958.24
2023-01-22T01:05:59.755Z,958.23
2023-01-22T01:06:10.768Z,958.21
2023-01-22T01:06:21.779Z,958.23
2023-01-22T01:06:33.758Z,958.23
2023-01-22T01:06:44.774Z,958.24
2023-01-22T01:06:55.789Z,958.21
2023-01-22T01:07:07.763Z,958.23
2023-01-22T01:07:18.776Z,958.24
2023-01-22T01:07:30.761Z,958.24
2023-01-22T01:07:42.764Z,958.22
2023-01-22T01:07:53.792Z,958.21
2023-01-22T01:08:05.767Z,958.21
2023-01-22T01:08:16.761Z,958.21
2023-01-22T01:08:28.745Z,958.22
2023-01-22T01:08:39.755Z,958.22
2023-01-22T01:08:50.758Z,958.25
2023-01-22T01:09:01.794Z,958.16
2023-01-22T01:09:13.799Z,958.19
2023-01-22T01:09:25.774Z,958.20
2023-01-22T01:09:37.773Z,958.18
2023-01-22T01:09:48.764Z,958.20
2023-01-22T01:10:00.764Z,958.21
2023-01-22T01:10:11.780Z,958.16
2023-01-22T01:10:23.767Z,958.15
2023-01-22T01:10:35.760Z,958.16
2023-01-22T01:10:46.771Z,958.18
2023-01-22T01:10:58.751Z,958.16
2023-01-22T01:11:09.817Z,958.17
2023-01-22T01:11:21.964Z,958.16
2023-01-22T01:11:33.777Z,958.17
2023-01-22T01:11:44.794Z,958.19
2023-01-22T01:11:56.766Z,958.19
2023-01-22T01:12:07.780Z,958.19
2023-01-22T01:12:19.773Z,958.20
2023-01-22T01:12:31.752Z,958.21
2023-01-22T01:12:42.769Z,958.22
2023-01-22T01:12:53.778Z,958.18
2023-01-22T01:13:05.802Z,958.18
2023-01-22T01:13:17.872Z,958.18
2023-01-22T01:13:28.769Z,958.17
2023-01-22T01:13:40.751Z,958.17
2023-01-22T01:13:51.794Z,958.19
2023-01-22T01:14:03.789Z,958.16
2023-01-22T01:14:15.765Z,958.15
2023-01-22T01:14:26.783Z,958.16
2023-01-22T01:14:38.778Z,958.17
2023-01-22T01:14:50.757Z,958.16
2023-01-22T01:15:01.779Z,958.16
2023-01-22T01:15:12.787Z,958.17
2023-01-22T01:15:24.771Z,958.17
2023-01-22T01:15:36.789Z,958.14
2023-01-22T01:15:48.784Z,958.14
2023-01-22T01:16:00.847Z,958.15
2023-01-22T01:16:11.826Z,958.16
2023-01-22T01:16:22.823Z,958.12
2023-01-22T01:16:33.758Z,958.13
2023-01-22T01:16:44.757Z,958.13
2023-01-22T01:16:58.376Z,958.12
2023-01-22T01:17:06.751Z,958.13
2023-01-22T01:17:17.750Z,958.14
2023-01-22T01:17:28.765Z,958.11
2023-01-22T01:17:39.784Z,958.11
2023-01-22T01:17:51.767Z,958.16
2023-01-22T01:18:02.781Z,958.13
2023-01-22T01:18:14.782Z,958.09
2023-01-22T01:18:27.355Z,958.11
2023-01-22T01:18:38.764Z,958.13
2023-01-22T01:18:49.805Z,958.12
2023-01-22T01:19:01.794Z,958.14
2023-01-22T01:19:13.767Z,958.13
2023-01-22T01:19:24.770Z,958.13
2023-01-22T01:19:36.753Z,958.13
2023-01-22T01:19:47.761Z,958.12
2023-01-22T01:19:58.761Z,958.12
2023-01-22T01:20:09.775Z,958.12
2023-01-22T01:20:21.752Z,958.12
2023-01-22T01:20:32.777Z,958.14
2023-01-22T01:20:44.752Z,958.15
2023-01-22T01:20:55.771Z,958.12
2023-01-22T01:21:07.750Z,958.16
2023-01-22T01:21:18.760Z,958.13
2023-01-22T01:21:29.773Z,958.09
2023-01-22T01:21:41.781Z,958.13
2023-01-22T01:21:53.771Z,958.13
2023-01-22T01:22:04.779Z,958.04
2023-01-22T01:22:16.754Z,958.03
2023-01-22T01:22:27.762Z,958.11
2023-01-22T01:22:39.775Z,958.07
2023-01-22T01:22:51.762Z,958.11
2023-01-22T01:23:03.777Z,958.12
2023-01-22T01:23:14.776Z,958.09
2023-01-22T01:23:26.757Z,958.08
2023-01-22T01:23:37.763Z,958.08
2023-01-22T01:23:48.785Z,958.07
2023-01-22T01:24:00.776Z,958.08
2023-01-22T01:24:12.765Z,958.08
2023-01-22T01:24:24.754Z,958.11
2023-01-22T01:24:35.772Z,958.11
2023-01-22T01:24:46.779Z,958.06
2023-01-22T01:24:58.757Z,958.11
2023-01-22T01:25:09.782Z,958.11
2023-01-22T01:25:21.764Z,958.10
2023-01-22T01:25:33.787Z,958.08
2023-01-22T01:25:45.773Z,958.09
2023-01-22T01:25:57.752Z,958.11
2023-01-22T01:26:08.760Z,958.12
2023-01-22T01:26:19.774Z,958.15
2023-01-22T01:26:31.773Z,958.12
2023-01-22T01:26:42.777Z,958.10
2023-01-22T01:26:54.768Z,958.11
2023-01-22T01:27:06.761Z,958.10
2023-01-22T01:27:17.736Z,958.13
2023-01-22T01:27:28.742Z,958.13
2023-01-22T01:27:39.744Z,958.12
2023-01-22T01:27:50.815Z,958.09
2023-01-22T01:28:02.799Z,958.11
2023-01-22T01:28:14.774Z,958.12
2023-01-22T01:28:25.883Z,958.09
2023-01-22T01:28:36.795Z,958.11
2023-01-22T01:28:48.780Z,958.10
2023-01-22T01:29:00.781Z,958.10
2023-01-22T01:29:12.756Z,958.10
2023-01-22T01:29:24.752Z,958.08
2023-01-22T01:29:35.747Z,958.09
2023-01-22T01:29:46.760Z,958.07
2023-01-22T01:29:57.771Z,958.09
2023-01-22T01:30:09.766Z,958.08
2023-01-22T01:30:21.756Z,958.08
2023-01-22T01:30:32.817Z,958.08
2023-01-22T01:30:43.776Z,958.09
2023-01-22T01:30:54.825Z,958.07
2023-01-22T01:31:05.884Z,958.09
2023-01-22T01:31:16.950Z,958.11
2023-01-22T01:31:27.949Z,958.08
2023-01-22T01:31:39.842Z,958.08
2023-01-22T01:31:50.809Z,958.09
2023-01-22T01:32:01.814Z,958.09
2023-01-22T01:32:12.740Z,958.09
2023-01-22T01:32:23.751Z,958.08
2023-01-22T01:32:34.771Z,958.12
2023-01-22T01:32:46.763Z,958.07
2023-01-22T01:32:57.778Z,958.06
2023-01-22T01:33:09.768Z,958.08
2023-01-22T01:33:20.774Z,958.08
2023-01-22T01:33:32.761Z,958.05
2023-01-22T01:33:43.768Z,958.05
2023-01-22T01:33:54.787Z,958.05
2023-01-22T01:34:06.768Z,958.04
2023-01-22T01:34:18.752Z,958.04
2023-01-22T01:34:29.778Z,958.05
2023-01-22T01:34:41.757Z,958.05
2023-01-22T01:34:52.796Z,958.07
2023-01-22T01:35:04.771Z,958.01
2023-01-22T01:35:16.751Z,958.01
2023-01-22T01:35:27.780Z,958.03
2023-01-22T01:35:39.752Z,958.04
2023-01-22T01:35:50.771Z,958.05
2023-01-22T01:36:02.748Z,958.05
2023-01-22T01:36:13.763Z,958.05
2023-01-22T01:36:46.307Z,958.04
2023-01-22T01:36:48.752Z,958.08
2023-01-22T01:36:49.706Z,958.05
2023-01-22T01:36:59.762Z,958.07
2023-01-22T01:37:10.773Z,958.06
2023-01-22T01:37:21.790Z,958.03
2023-01-22T01:37:33.775Z,958.04
2023-01-22T01:37:45.764Z,958.05
2023-01-22T01:37:56.777Z,958.07
2023-01-22T01:38:08.765Z,958.09
2023-01-22T01:38:19.771Z,958.06
2023-01-22T01:38:31.763Z,958.06
2023-01-22T01:38:43.748Z,958.06
2023-01-22T01:38:54.775Z,958.06
2023-01-22T01:39:06.756Z,958.06
2023-01-22T01:39:17.787Z,958.05
2023-01-22T01:39:29.756Z,958.07
2023-01-22T01:39:40.764Z,958.06
2023-01-22T01:39:51.771Z,958.06
2023-01-22T01:40:02.784Z,958.09
2023-01-22T01:40:14.763Z,958.07
2023-01-22T01:40:26.768Z,958.07
2023-01-22T01:40:37.780Z,958.10
2023-01-22T01:40:49.761Z,958.06
2023-01-22T01:41:00.806Z,958.08
2023-01-22T01:41:12.789Z,958.07
2023-01-22T01:41:24.769Z,958.07
2023-01-22T01:41:35.792Z,958.08
2023-01-22T01:41:47.782Z,958.09
2023-01-22T01:41:59.751Z,958.10
2023-01-22T01:42:10.765Z,958.09
2023-01-22T01:42:22.758Z,958.11
2023-01-22T01:42:33.770Z,958.08
2023-01-22T01:42:45.791Z,958.06
2023-01-22T01:42:57.766Z,958.06
2023-01-22T01:43:08.784Z,958.07
2023-01-22T01:43:20.782Z,958.08
2023-01-22T01:43:32.857Z,958.05
2023-01-22T01:43:43.770Z,958.05
2023-01-22T01:43:55.752Z,958.07
2023-01-22T01:44:06.780Z,958.08
2023-01-22T01:44:18.799Z,958.08
2023-01-22T01:44:30.766Z,958.09
2023-01-22T01:44:42.745Z,958.08
2023-01-22T01:44:53.765Z,958.10
2023-01-22T01:45:05.751Z,958.09
2023-01-22T01:45:16.779Z,958.08
2023-01-22T01:45:28.767Z,958.08
2023-01-22T01:45:40.750Z,958.08
2023-01-22T01:45:51.769Z,958.07
2023-01-22T01:46:03.748Z,958.07
2023-01-22T01:46:14.804Z,958.08
2023-01-22T01:46:26.818Z,958.05
2023-01-22T01:46:38.853Z,958.04
2023-01-22T01:46:50.810Z,958.06
2023-01-22T01:47:01.755Z,958.06
2023-01-22T01:47:12.758Z,958.08
2023-01-22T01:47:23.761Z,958.05
2023-01-22T01:47:35.755Z,958.07
2023-01-22T01:47:46.785Z,958.06
2023-01-22T01:47:58.767Z,958.07
2023-01-22T01:48:10.782Z,958.08
2023-01-22T01:48:22.767Z,958.07
2023-01-22T01:48:34.764Z,958.08
2023-01-22T01:48:46.767Z,958.08
2023-01-22T01:48:57.815Z,958.09
2023-01-22T01:49:09.808Z,958.07
2023-01-22T01:49:21.793Z,958.06
2023-01-22T01:49:33.781Z,958.04
2023-01-22T01:49:45.775Z,958.06
2023-01-22T01:49:57.773Z,958.03
2023-01-22T01:50:08.778Z,958.04
2023-01-22T01:50:20.757Z,958.04
2023-01-22T01:50:31.791Z,958.04
2023-01-22T01:50:43.785Z,958.03
2023-01-22T01:50:54.769Z,958.05
2023-01-22T01:51:05.862Z,958.01
2023-01-22T01:51:17.802Z,958.04
2023-01-22T01:51:29.786Z,958.03
2023-01-22T01:51:41.769Z,958.04
2023-01-22T01:51:52.776Z,958.03
2023-01-22T01:52:03.756Z,958.02
2023-01-22T01:52:14.823Z,958.01
2023-01-22T01:52:26.824Z,958.04
2023-01-22T01:52:38.813Z,958.03
2023-01-22T01:52:50.800Z,958.01
2023-01-22T01:53:02.822Z,958.02
2023-01-22T01:53:13.744Z,958.02
2023-01-22T01:53:24.760Z,958.00
2023-01-22T01:53:36.745Z,958.00
2023-01-22T01:53:47.758Z,958.00
2023-01-22T01:53:58.778Z,958.00
2023-01-22T01:54:09.784Z,957.98
2023-01-22T01:54:21.755Z,957.99
2023-01-22T01:54:32.782Z,957.99
2023-01-22T01:54:44.762Z,958.00
2023-01-22T01:54:55.774Z,957.99
2023-01-22T01:55:06.774Z,957.97
2023-01-22T01:55:17.779Z,957.98
2023-01-22T01:55:29.748Z,957.98
2023-01-22T01:55:40.759Z,957.97
2023-01-22T01:55:52.758Z,957.98
2023-01-22T01:56:03.761Z,958.00
2023-01-22T01:56:14.782Z,957.98
2023-01-22T01:56:26.760Z,957.98
2023-01-22T01:56:37.760Z,957.97
2023-01-22T01:56:48.771Z,957.96
2023-01-22T01:57:00.760Z,957.96
2023-01-22T01:57:11.776Z,957.94
2023-01-22T01:57:23.760Z,957.95
2023-01-22T01:57:35.749Z,957.95
2023-01-22T01:57:46.774Z,957.94
2023-01-22T01:57:57.781Z,957.93
2023-01-22T01:58:08.782Z,957.93
2023-01-22T01:58:20.757Z,957.95
2023-01-22T01:58:31.774Z,957.97
2023-01-22T01:58:43.850Z,957.96
2023-01-22T01:58:54.767Z,957.94
2023-01-22T01:59:06.751Z,957.93
2023-01-22T01:59:17.767Z,957.93
2023-01-22T01:59:28.732Z,957.93
2023-01-22T01:59:39.766Z,957.91
2023-01-22T01:59:50.782Z,957.94
2023-01-22T02:00:02.760Z,957.95
2023-01-22T02:00:13.766Z,957.94
2023-01-22T02:00:25.828Z,957.95
2023-01-22T02:00:36.758Z,957.94
2023-01-22T02:00:48.770Z,957.96
2023-01-22T02:00:59.823Z,957.96
2023-01-22T02:01:10.802Z,957.96
2023-01-22T02:01:21.723Z,957.97
2023-01-22T02:01:32.747Z,957.99
2023-01-22T02:01:43.777Z,957.96
2023-01-22T02:01:55.823Z,957.96
2023-01-22T02:02:06.815Z,957.95
2023-01-22T02:02:17.771Z,957.94
2023-01-22T02:02:29.771Z,957.96
2023-01-22T02:02:40.779Z,957.96
2023-01-22T02:02:52.762Z,957.97
2023-01-22T02:03:03.782Z,957.95
2023-01-22T02:03:15.773Z,957.94
2023-01-22T02:03:27.757Z,957.96
2023-01-22T02:03:38.767Z,957.94
2023-01-22T02:03:49.787Z,957.95
2023-01-22T02:04:01.828Z,957.96
2023-01-22T02:04:12.750Z,957.97
2023-01-22T02:04:23.783Z,957.93
2023-01-22T02:04:35.776Z,957.97
2023-01-22T02:04:47.761Z,957.97
2023-01-22T02:04:58.767Z,957.99
2023-01-22T02:05:09.780Z,957.97
2023-01-22T02:05:21.763Z,957.95
2023-01-22T02:05:32.780Z,957.98
2023-01-22T02:05:44.755Z,957.97
2023-01-22T02:05:55.767Z,957.95
2023-01-22T02:06:06.773Z,957.95
2023-01-22T02:06:18.762Z,957.94
2023-01-22T02:06:29.766Z,957.93
2023-01-22T02:06:41.760Z,957.95
2023-01-22T02:06:52.768Z,957.95
2023-01-22T02:07:04.754Z,957.94
2023-01-22T02:07:15.761Z,957.94
2023-01-22T02:07:26.779Z,957.94
2023-01-22T02:07:38.759Z,957.95
2023-01-22T02:07:49.774Z,957.95
2023-01-22T02:08:00.779Z,957.94
2023-01-22T02:08:12.761Z,957.96
2023-01-22T02:08:23.772Z,958.00
2023-01-22T02:08:35.767Z,957.90
2023-01-22T02:08:46.779Z,957.94
2023-01-22T02:08:58.751Z,957.95
2023-01-22T02:09:09.765Z,957.94
2023-01-22T02:09:20.795Z,957.96
2023-01-22T02:09:32.762Z,957.96
2023-01-22T02:09:43.777Z,957.96
2023-01-22T02:09:55.757Z,957.95
2023-01-22T02:10:06.772Z,957.95
2023-01-22T02:10:18.114Z,957.96
2023-01-22T02:10:29.767Z,957.93
2023-01-22T02:10:40.785Z,957.93
2023-01-22T02:10:52.752Z,957.93
2023-01-22T02:11:03.757Z,957.93
2023-01-22T02:11:14.768Z,957.97
2023-01-22T02:11:26.366Z,957.96
2023-01-22T02:11:37.788Z,957.94
2023-01-22T02:11:49.759Z,957.95
2023-01-22T02:12:01.771Z,957.95
2023-01-22T02:12:13.744Z,957.94
2023-01-22T02:12:24.749Z,957.96
2023-01-22T02:12:35.752Z,957.96
2023-01-22T02:12:46.765Z,957.96
2023-01-22T02:12:57.774Z,957.96
2023-01-22T02:13:08.789Z,957.97
2023-01-22T02:13:20.775Z,957.96
2023-01-22T02:13:32.754Z,957.96
2023-01-22T02:13:43.769Z,957.95
2023-01-22T02:13:55.844Z,957.95
2023-01-22T02:14:06.745Z,957.96
2023-01-22T02:14:17.752Z,957.96
2023-01-22T02:14:28.775Z,957.98
2023-01-22T02:14:40.765Z,957.98
2023-01-22T02:14:51.771Z,957.96
2023-01-22T02:15:02.777Z,957.95
2023-01-22T02:15:14.775Z,957.94
2023-01-22T02:15:26.753Z,957.95
2023-01-22T02:15:37.759Z,957.93
2023-01-22T02:15:48.777Z,957.95
2023-01-22T02:15:59.820Z,957.94
2023-01-22T02:16:11.896Z,957.97
2023-01-22T02:16:23.834Z,957.96
2023-01-22T02:16:35.769Z,957.93
2023-01-22T02:16:46.799Z,957.96
2023-01-22T02:16:58.772Z,957.97
2023-01-22T02:17:09.779Z,957.96
2023-01-22T02:17:21.757Z,957.95
2023-01-22T02:17:32.773Z,957.98
2023-01-22T02:17:44.752Z,957.96
2023-01-22T02:17:55.763Z,957.96
2023-01-22T02:18:06.773Z,957.95
2023-01-22T02:18:17.782Z,957.95
2023-01-22T02:18:29.763Z,957.97
2023-01-22T02:18:41.764Z,957.93
2023-01-22T02:18:52.764Z,957.93
2023-01-22T02:19:03.777Z,957.94
2023-01-22T02:19:14.777Z,957.94
2023-01-22T02:19:26.757Z,957.96
2023-01-22T02:19:38.747Z,957.96
2023-01-22T02:19:49.777Z,957.95
2023-01-22T02:20:01.783Z,957.94
2023-01-22T02:20:13.787Z,957.96
2023-01-22T02:20:25.769Z,957.97
2023-01-22T02:20:37.765Z,957.96
2023-01-22T02:20:49.769Z,957.94
2023-01-22T02:21:00.774Z,957.95
2023-01-22T02:21:12.751Z,957.96
2023-01-22T02:21:24.766Z,957.97
2023-01-22T02:21:35.770Z,957.98
2023-01-22T02:21:46.781Z,957.97
2023-01-22T02:21:58.751Z,957.98
2023-01-22T02:22:10.747Z,957.99
2023-01-22T02:22:22.752Z,957.99
2023-01-22T02:22:33.765Z,957.98
2023-01-22T02:22:45.755Z,957.99
2023-01-22T02:22:56.759Z,958.01
2023-01-22T02:23:07.799Z,958.01
2023-01-22T02:23:19.784Z,957.99